Seattle, Washington
Traffic Map
Current Weather Conditions
Seattle, Washington
Broken Clouds
Broken Clouds
12°
Feels Like: 12°
Wind Chill: 12° Ceiling: 3100
Heat Index: 12° Visibility: 10mi
Dew Point: Wind: 9mph
Humidity: 77% Direction: 220° (SW)
Pressure: 29.66in Gusts: 23mph
Raw Report DataKBFI 241353Z 22008G20KT 10SM FEW014 SCT022 BKN031 12/08 A2966 RMK AO2 RAE48 SLP042 P0007 T01170078
Traffic Incident Summary
Active as of:
Severity:
Category:
InformationThere was an issue retrieving the traffic information for this location. Please try a different location or try again shortly.
Advertisements
At Last! Intellicast now available for iPhone and Android